首页
METAR-TAF:

METAR-TAF

机场 :

吉杰勒, 阿尔及利亚

纬度: 36-53N, 经度: 005-49E, 海拔: 2米

当前天气观测

该预报发布于51分钟前的11:00 UTC
风速8节,风向西
温度 18°C
湿度 45%
气压 1022 hPa
能见度10公里或以上
散云层高于4000英尺
多云层高于9000英尺

METAR: DAAV 261100Z 27008KT 9999 SCT040 BKN090 18/06 Q1022

时间: 12:51 (11:51 UTC)

预报

该预报发布于51分钟前的11:00 UTC
预报有效从26日的 12点(UTC)到 27日的 12点(UTC)
风速12节,风向西
能见度10公里或以上
少量云层高于2600英尺
散云层高于10000英尺
短暂存在
从 26日的 12点(UTC)到 26日的 24点(UTC)
少量云层高于2300英尺, 塔状积云.
几率 40% :
短暂存在
从 26日的 12点(UTC)到 26日的 22点(UTC)
风速15节,风向西转西北,有时为25节阵风
能見度: 5000
少量云层高于2300英尺, 积雨云.
多云层高于3000英尺
成为
从 26日的 22点(UTC)到 26日的 24点(UTC)
风速6节,风向南转西南
几率 30% :
短暂存在
从 27日的 00点(UTC)到 27日的 06点(UTC)
风速2节,风向多变
能見度: 3000
多云层高于1000英尺
轻雾

TAF: DAAV 261100Z 2612/2712 28012KT 9999 FEW026 SCT100 TEMPO 2612/2624 FEW023TCU PROB40 TEMPO 2612/2622 29015G25KT 5000 RA FEW023CB BKN030 BECMG 2622/2624 20006KT PROB30 TEMPO 2700/2706 VRB02KT 3000 BR BKN010

超过4000个机场的气象观测和天气预报(METAR&TAF报告)。

可查询的气象台以黄色和红色小点在地图上表示。

将鼠标移到小点上方,可查看气象台名称。

然后点击查看天气观测和预报。

如需切换地图:点击带黑十字的绿色按钮放大地图;点击带横线的绿色按钮缩小地图;或者点击绿色箭头查看邻近地区的地图。


METAR-TAF: